Chicago O'Hare International Airport
KORD : now visible

Airfield :











YOU CAN JOIN US ON...

 
LOGIN :

Register | Disclaimer

   EN    FR    IT 

 









Legend :    VFR   Marginal VFR   IFR   Intensive IFR   Very Intensive IFR
Visi :
Ceiling :
>= 8 km
>= 3000ft
5 to 8 km
1000 to 3000 ft
1500m to 5 km
500 to 1000 ft
800 to 1500m
200 to 500 ft
< 800m
< 200 ft
Symbols :   Thunderstorms  Fog  Heavy snow  Heavy precipitations  Wind > 20 kt






- Airport Elevation : 672 ft
- IATA code : ORD


KORD - Chicago O'Hare International

CURRENT METAR :
  • 261351Z 09010KT 10SM TS BKN042CB BKN050 BKN060 OVC140 18/08 A2972 RMK AO2 LTG DSNT SW TSB18 PRESFR SLP060 OCNL LTGCG SW TS SW MOV NE T01780083

EXPIRED METARs :
  • 261324Z 10004KT 10SM TS BKN042CB BKN050 BKN060 OVC140 18/09 A2975 RMK AO2 LTG DSNT SW TSB18 OCNL LTGCG SW TS SW MOV NE T01780089
  • 261251Z 00000KT 10SM FEW040 OVC150 17/09 A2975 RMK AO2 SLP073 OCNL LTG DSNT SW-NW CB SW-NW MOV E T01720089
  • 261151Z 11007KT 10SM FEW040 OVC150 16/08 A2979 RMK AO2 SLP085 OCNL LTG DSNT SW-NW CB DSNT SW-NW MOV E CBMAM OHD MOV E T01610083 10167 20144 53006
  • 261051Z 10004KT 10SM OVC190 16/06 A2979 RMK AO2 SLP084 T01560061
  • 260951Z 09006KT 10SM SCT190 OVC240 15/06 A2976 RMK AO2 SLP074 T01500061

TAF KORD
Valid from the 26 at 14:00 until the 27 at 18:00 UTC


261354Z 2614/2718 12012G19KT 5SM -SHRA VCTS SCT025CB OVC050
TEMPO 2614/2616 2SM SHRA BKN030
FM261600 13012G19KT 5SM -SHRA VCTS SCT025CB OVC050
TEMPO 2616/2618 2SM TSRA OVC040CB
FM261900 15012G20KT P6SM VCSH SCT025 BKN040
TEMPO 2622/2701 4SM TSRA BKN030CB
FM270200 22011G17KT P6SM VCSH SCT015 BKN030
FM270600 29011G17KT P6SM BKN015
FM271600 29013G21KT P6SM BKN030
KZAU FIR / North America



MET'MAP, your aeronautical weather chart ! - Copyright ORBIFLY December 2007 - Disclaimer

ORBIFLY MET'MAP TEAM :

Programming & Development : Alexandra Zaïnal
Original concept : Baudouin d'Aumeries
Technical & hardware support : Manuel Goepfert
Assistance : Marc-Olivier Méhu




SOURCES & CREDITS :

   NOAA       Earth
Advisory